createdAt,value
2018-07-04T00:02:27.356Z,99852.00
2018-07-04T00:04:55.016Z,99846.59
2018-07-04T00:07:23.537Z,99844.92
2018-07-04T00:09:52.010Z,99840.86
2018-07-04T00:12:19.772Z,99847.22
2018-07-04T00:14:47.457Z,99837.15
2018-07-04T00:17:15.136Z,99845.19
2018-07-04T00:19:42.796Z,99842.98
2018-07-04T00:22:10.449Z,99843.00
2018-07-04T00:24:38.408Z,99843.48
2018-07-04T00:27:06.118Z,99842.29
2018-07-04T00:29:33.820Z,99845.50
2018-07-04T00:32:01.496Z,99851.52
2018-07-04T00:34:29.446Z,99856.04
2018-07-04T00:36:57.137Z,99845.44
2018-07-04T00:39:24.860Z,99846.41
2018-07-04T00:41:52.533Z,99840.97
2018-07-04T00:44:21.428Z,99839.95
2018-07-04T00:46:49.145Z,99834.92
2018-07-04T00:49:17.491Z,99836.75
2018-07-04T00:51:46.356Z,99835.55
2018-07-04T00:54:14.308Z,99837.42
2018-07-04T00:56:42.707Z,99834.92
2018-07-04T00:59:10.368Z,99835.92
2018-07-04T01:01:38.060Z,99835.32
2018-07-04T01:04:06.165Z,99828.11
2018-07-04T01:06:34.865Z,99818.55
2018-07-04T01:09:02.555Z,99824.30
2018-07-04T01:11:30.254Z,99818.09
2018-07-04T01:13:59.112Z,99822.31
2018-07-04T01:16:26.800Z,99821.30
2018-07-04T01:18:54.836Z,99815.22
2018-07-04T01:21:23.444Z,99814.37
2018-07-04T01:23:51.239Z,99810.83
2018-07-04T01:26:18.901Z,99808.63
2018-07-04T01:28:50.521Z,99810.13
2018-07-04T01:31:18.492Z,99813.00
2018-07-04T01:33:46.176Z,99812.14
2018-07-04T01:36:13.824Z,99805.75
2018-07-04T01:38:41.510Z,99809.14
2018-07-04T01:41:09.464Z,99804.11
2018-07-04T01:43:37.609Z,99807.95
2018-07-04T01:46:05.299Z,99808.47
2018-07-04T01:48:33.244Z,99810.52
2018-07-04T01:51:01.639Z,99802.11
2018-07-04T01:53:29.308Z,99808.16
2018-07-04T01:55:57.615Z,99808.67
2018-07-04T01:58:26.192Z,99808.86
2018-07-04T02:00:53.876Z,99808.86
2018-07-04T02:03:21.557Z,99809.53
2018-07-04T02:05:49.580Z,99812.19
2018-07-04T02:08:17.256Z,99814.55
2018-07-04T02:10:44.917Z,99805.78
2018-07-04T02:13:12.610Z,99802.09
2018-07-04T02:15:40.298Z,99805.30
2018-07-04T02:18:08.016Z,99803.98
2018-07-04T02:20:35.716Z,99802.14
2018-07-04T02:23:03.690Z,99799.81
2018-07-04T02:25:34.456Z,99806.52
2018-07-04T02:28:02.180Z,99800.84
2018-07-04T02:30:30.130Z,99803.19
2018-07-04T02:32:57.802Z,99798.50
2018-07-04T02:35:25.498Z,99786.92
2018-07-04T02:37:53.216Z,99779.34
2018-07-04T02:40:21.364Z,99782.72
2018-07-04T02:42:49.060Z,99778.84
2018-07-04T02:45:16.739Z,99781.52
2018-07-04T02:47:44.756Z,99771.09
2018-07-04T02:50:12.443Z,99767.39
2018-07-04T02:52:40.604Z,99765.69
2018-07-04T02:55:09.376Z,99774.25
2018-07-04T02:57:37.051Z,99781.32
2018-07-04T03:00:04.741Z,99776.25
2018-07-04T03:02:32.524Z,99774.59
2018-07-04T03:05:00.500Z,99768.88
2018-07-04T03:07:28.187Z,99762.17
2018-07-04T03:09:55.870Z,99757.97
2018-07-04T03:12:23.577Z,99750.75
2018-07-04T03:14:51.528Z,99758.98
2018-07-04T03:17:19.198Z,99750.27
2018-07-04T03:19:46.872Z,99751.61
2018-07-04T03:22:14.559Z,99750.25
2018-07-04T03:24:43.359Z,99749.23
2018-07-04T03:27:11.027Z,99748.23
2018-07-04T03:29:38.698Z,99749.73
2018-07-04T03:32:06.385Z,99748.38
2018-07-04T03:34:34.360Z,99738.13
2018-07-04T03:37:02.061Z,99740.66
2018-07-04T03:39:29.733Z,99734.30
2018-07-04T03:41:57.837Z,99732.08
2018-07-04T03:44:25.558Z,99744.05
2018-07-04T03:46:53.288Z,99739.68
2018-07-04T03:49:21.274Z,99736.81
2018-07-04T03:51:49.269Z,99733.95
2018-07-04T03:54:20.640Z,99728.91
2018-07-04T03:56:48.333Z,99727.57
2018-07-04T03:59:16.306Z,99725.86
2018-07-04T04:01:44.824Z,99731.92
2018-07-04T04:04:12.488Z,99727.90
2018-07-04T04:06:40.242Z,99738.81
2018-07-04T04:09:08.267Z,99730.22
2018-07-04T04:11:36.619Z,99739.48
2018-07-04T04:14:04.373Z,99737.64
2018-07-04T04:16:32.363Z,99729.56
2018-07-04T04:19:00.070Z,99735.28
2018-07-04T04:21:28.122Z,99729.42
2018-07-04T04:23:55.817Z,99728.41
2018-07-04T04:26:25.259Z,99740.52
2018-07-04T04:28:53.060Z,99741.02
2018-07-04T04:31:22.399Z,99754.98
2018-07-04T04:33:50.438Z,99754.12
2018-07-04T04:36:18.148Z,99745.04
2018-07-04T04:38:45.889Z,99747.22
2018-07-04T04:41:14.814Z,99738.83
2018-07-04T04:43:42.513Z,99738.48
2018-07-04T04:46:10.956Z,99740.36
2018-07-04T04:48:39.036Z,99738.33
2018-07-04T04:51:06.737Z,99741.36
2018-07-04T04:56:08.153Z,99744.72
2018-07-04T04:58:36.488Z,99734.61
2018-07-04T05:01:04.164Z,99728.91
2018-07-04T05:03:32.256Z,99729.73
2018-07-04T05:05:59.980Z,99738.64
2018-07-04T05:08:27.653Z,99738.81
2018-07-04T05:10:55.629Z,99742.16
2018-07-04T05:13:23.322Z,99738.78
2018-07-04T05:15:52.763Z,99739.97
2018-07-04T05:18:20.729Z,99747.39
2018-07-04T05:20:48.431Z,99749.72
2018-07-04T05:23:16.120Z,99749.39
2018-07-04T05:25:46.877Z,99741.48
2018-07-04T05:28:15.570Z,99747.70
2018-07-04T05:30:43.248Z,99750.03
2018-07-04T05:33:11.244Z,99743.60
2018-07-04T05:35:38.896Z,99746.11
2018-07-04T05:38:06.570Z,99739.49
2018-07-04T05:40:34.530Z,99737.94
2018-07-04T05:43:02.969Z,99737.69
2018-07-04T05:45:30.656Z,99724.74
2018-07-04T05:47:58.589Z,99733.31
2018-07-04T05:50:26.261Z,99729.72
2018-07-04T05:52:53.984Z,99731.63
2018-07-04T05:55:22.708Z,99731.61
2018-07-04T05:57:50.382Z,99730.84
2018-07-04T06:00:18.656Z,99728.73
2018-07-04T06:02:46.756Z,99728.31
2018-07-04T06:05:14.424Z,99723.12
2018-07-04T06:07:42.084Z,99723.09
2018-07-04T06:10:10.048Z,99719.89
2018-07-04T06:12:37.702Z,99723.09
2018-07-04T06:15:05.819Z,99719.30
2018-07-04T06:17:33.631Z,99714.19
2018-07-04T06:20:03.284Z,99710.91
2018-07-04T06:22:31.272Z,99715.28
2018-07-04T06:24:58.929Z,99712.89
2018-07-04T06:27:26.591Z,99711.90
2018-07-04T06:29:54.531Z,99720.80
2018-07-04T06:32:22.247Z,99713.84
2018-07-04T06:34:50.752Z,99709.91
2018-07-04T06:37:18.705Z,99713.75
2018-07-04T06:39:46.368Z,99709.81
2018-07-04T06:42:16.260Z,99708.19
2018-07-04T06:44:44.206Z,99710.63
2018-07-04T06:47:12.487Z,99718.22
2018-07-04T06:49:42.326Z,99713.33
2018-07-04T06:52:10.303Z,99710.59
2018-07-04T06:54:37.960Z,99714.13
2018-07-04T06:57:05.617Z,99711.25
2018-07-04T06:59:33.751Z,99709.45
2018-07-04T07:02:01.397Z,99705.97
2018-07-04T07:04:32.705Z,99709.86
2018-07-04T07:07:01.772Z,99712.58
2018-07-04T07:09:30.444Z,99716.26
2018-07-04T07:12:00.120Z,99712.95
2018-07-04T07:14:28.928Z,99708.89
2018-07-04T07:16:56.585Z,99710.88
2018-07-04T07:19:24.253Z,99711.73
2018-07-04T07:21:52.233Z,99713.58
2018-07-04T07:24:19.909Z,99704.08
2018-07-04T07:26:47.575Z,99702.76
2018-07-04T07:29:15.524Z,99705.65
2018-07-04T07:31:43.290Z,99704.52
2018-07-04T07:34:11.076Z,99709.61
2018-07-04T07:36:39.020Z,99704.55
2018-07-04T07:39:06.663Z,99698.64
2018-07-04T07:41:34.356Z,99697.87
2018-07-04T07:44:02.325Z,99694.13
2018-07-04T07:46:30.026Z,99699.19
2018-07-04T07:48:57.700Z,99697.56
2018-07-04T07:51:26.641Z,99685.32
2018-07-04T07:53:54.368Z,99694.16
2018-07-04T07:56:23.337Z,99689.58
2018-07-04T07:58:51.353Z,99691.81
2018-07-04T08:01:19.050Z,99685.91
2018-07-04T08:03:46.735Z,99679.19
2018-07-04T08:06:16.391Z,99682.77
2018-07-04T08:08:44.096Z,99680.45
2018-07-04T08:11:13.006Z,99679.16
2018-07-04T08:13:41.777Z,99680.60
2018-07-04T08:16:09.495Z,99672.81
2018-07-04T08:18:41.698Z,99680.22
2018-07-04T08:21:10.249Z,99680.75
2018-07-04T08:23:37.917Z,99672.16
2018-07-04T08:26:05.611Z,99668.47
2018-07-04T08:28:33.612Z,99672.98
2018-07-04T08:31:01.937Z,99674.22
2018-07-04T08:33:29.642Z,99672.27
2018-07-04T08:35:58.209Z,99668.93
2018-07-04T08:38:25.896Z,99674.48
2018-07-04T08:40:54.719Z,99675.13
2018-07-04T08:43:22.676Z,99669.38
2018-07-04T08:45:51.683Z,99661.76
2018-07-04T08:48:19.799Z,99668.03
2018-07-04T08:50:49.559Z,99669.14
2018-07-04T08:53:17.367Z,99662.58
2018-07-04T08:55:45.033Z,99666.47
2018-07-04T08:58:13.840Z,99658.43
2018-07-04T09:00:42.529Z,99667.13
2018-07-04T09:03:10.433Z,99666.54
2018-07-04T09:05:41.889Z,99663.53
2018-07-04T09:08:09.559Z,99670.09
2018-07-04T09:10:38.740Z,99668.17
2018-07-04T09:13:09.794Z,99664.15
2018-07-04T09:15:38.495Z,99672.75
2018-07-04T09:18:08.455Z,99666.96
2018-07-04T09:20:36.663Z,99665.76
2018-07-04T09:23:04.890Z,99659.97
2018-07-04T09:25:32.596Z,99665.41
2018-07-04T09:28:01.543Z,99659.00
2018-07-04T09:30:29.548Z,99657.27
2018-07-04T09:32:58.901Z,99650.20
2018-07-04T09:35:27.369Z,99645.89
2018-07-04T09:37:55.070Z,99652.41
2018-07-04T09:40:22.746Z,99647.12
2018-07-04T09:42:52.120Z,99650.56
2018-07-04T09:45:20.587Z,99649.81
2018-07-04T09:47:48.371Z,99646.41
2018-07-04T09:50:16.341Z,99645.15
2018-07-04T09:52:44.558Z,99638.09
2018-07-04T09:55:12.272Z,99636.80
2018-07-04T09:57:40.227Z,99638.23
2018-07-04T10:00:08.581Z,99642.17
2018-07-04T10:02:40.469Z,99631.49
2018-07-04T10:05:18.005Z,99637.05
2018-07-04T10:07:45.708Z,99641.20
2018-07-04T10:10:14.220Z,99634.30
2018-07-04T10:12:41.945Z,99638.71
2018-07-04T10:15:09.673Z,99638.99
2018-07-04T10:17:37.659Z,99642.01
2018-07-04T10:20:05.336Z,99636.45
2018-07-04T10:22:33.033Z,99642.45
2018-07-04T10:25:03.200Z,99633.41
2018-07-04T10:27:32.580Z,99634.28
2018-07-04T10:30:02.652Z,99630.98
2018-07-04T10:32:33.034Z,99640.33
2018-07-04T10:35:01.435Z,99631.91
2018-07-04T10:37:29.161Z,99641.39
2018-07-04T10:39:57.151Z,99639.92
2018-07-04T10:42:24.882Z,99635.83
2018-07-04T10:44:53.551Z,99639.08
2018-07-04T10:47:22.338Z,99641.47
2018-07-04T10:49:50.089Z,99638.07
2018-07-04T10:52:18.453Z,99634.92
2018-07-04T10:54:46.382Z,99634.95
2018-07-04T10:57:14.327Z,99637.34
2018-07-04T10:59:42.018Z,99641.77
2018-07-04T11:02:09.948Z,99635.14
2018-07-04T11:04:37.703Z,99637.47
2018-07-04T11:07:07.289Z,99635.78
2018-07-04T11:09:35.450Z,99629.06
2018-07-04T11:12:04.071Z,99622.55
2018-07-04T11:14:31.778Z,99627.64
2018-07-04T11:16:59.744Z,99627.06
2018-07-04T11:19:27.461Z,99622.38
2018-07-04T11:21:55.142Z,99624.37
2018-07-04T11:24:23.262Z,99633.02
2018-07-04T11:26:51.104Z,99625.23
2018-07-04T11:29:18.833Z,99623.00
2018-07-04T11:31:46.891Z,99620.03
2018-07-04T11:34:15.086Z,99620.47
2018-07-04T11:36:42.795Z,99618.13
2018-07-04T11:39:10.781Z,99616.49
2018-07-04T11:41:38.464Z,99612.73
2018-07-04T11:44:06.129Z,99609.04
2018-07-04T11:46:34.296Z,99611.44
2018-07-04T11:49:03.469Z,99607.39
2018-07-04T11:51:32.171Z,99606.11
2018-07-04T11:54:00.822Z,99595.52
2018-07-04T11:56:28.728Z,99590.18
2018-07-04T11:58:56.464Z,99602.95
2018-07-04T12:01:25.400Z,99613.80
2018-07-04T12:03:53.084Z,99608.66
2018-07-04T12:06:21.349Z,99612.06
2018-07-04T12:08:49.405Z,99598.49
2018-07-04T12:11:17.925Z,99604.42
2018-07-04T12:13:46.200Z,99608.55
2018-07-04T12:16:15.504Z,99603.70
2018-07-04T12:18:43.170Z,99610.45
2018-07-04T12:21:10.820Z,99610.80
2018-07-04T12:23:39.317Z,99611.36
2018-07-04T12:26:08.353Z,99621.83
2018-07-04T12:28:36.033Z,99620.07
2018-07-04T12:31:04.049Z,99626.29
2018-07-04T12:33:31.803Z,99628.37
2018-07-04T12:36:03.383Z,99629.61
2018-07-04T12:38:32.405Z,99633.56
2018-07-04T12:41:02.304Z,99638.42
2018-07-04T12:43:30.711Z,99637.95
2018-07-04T12:45:59.400Z,99637.44
2018-07-04T12:48:27.337Z,99639.23
2018-07-04T12:50:56.205Z,99640.86
2018-07-04T12:53:24.132Z,99637.33
2018-07-04T12:55:51.804Z,99633.20
2018-07-04T12:58:21.656Z,99631.70
2018-07-04T13:00:54.481Z,99622.39
2018-07-04T13:03:23.428Z,99627.93
2018-07-04T13:05:51.873Z,99623.77
2018-07-04T13:08:22.420Z,99621.79
2018-07-04T13:10:50.111Z,99621.94
2018-07-04T13:13:18.476Z,99621.52
2018-07-04T13:15:46.420Z,99631.30
2018-07-04T13:18:17.031Z,99628.66
2018-07-04T13:20:44.711Z,99637.20
2018-07-04T13:23:12.690Z,99635.81
2018-07-04T13:25:40.431Z,99633.42
2018-07-04T13:28:11.029Z,99636.47
2018-07-04T13:30:40.649Z,99635.45
2018-07-04T13:33:10.081Z,99631.15
2018-07-04T13:35:37.800Z,99626.42
2018-07-04T13:38:05.711Z,99628.89
2018-07-04T13:43:07.362Z,99631.97
2018-07-04T13:45:36.869Z,99629.11
2018-07-04T13:48:09.213Z,99635.21
2018-07-04T13:50:39.693Z,99638.39
2018-07-04T13:53:09.760Z,99634.87
2018-07-04T13:55:37.762Z,99628.81
2018-07-04T13:58:05.616Z,99633.70
2018-07-04T14:00:34.480Z,99638.63
2018-07-04T14:03:04.875Z,99631.97
2018-07-04T14:05:33.065Z,99629.43
2018-07-04T14:08:01.801Z,99629.07
2018-07-04T14:10:29.553Z,99631.53
2018-07-04T14:12:57.236Z,99631.61
2018-07-04T14:15:26.988Z,99622.64
2018-07-04T14:17:55.025Z,99626.81
2018-07-04T14:20:24.019Z,99622.01
2018-07-04T14:22:54.130Z,99625.50
2018-07-04T14:25:22.420Z,99618.84
2018-07-04T14:27:50.134Z,99625.66
2018-07-04T14:30:19.497Z,99630.58
2018-07-04T14:32:48.420Z,99619.27
2018-07-04T14:35:16.921Z,99620.03
2018-07-04T14:37:46.953Z,99627.36
2018-07-04T14:40:14.675Z,99621.73
2018-07-04T14:42:42.937Z,99615.15
2018-07-04T14:45:11.573Z,99612.47
2018-07-04T14:47:41.656Z,99608.77
2018-07-04T14:50:09.512Z,99605.01
2018-07-04T14:52:38.535Z,99599.50
2018-07-04T14:55:06.288Z,99602.52
2018-07-04T14:57:34.509Z,99595.63
2018-07-04T15:00:03.489Z,99594.50
2018-07-04T15:02:32.361Z,99598.57
2018-07-04T15:05:00.059Z,99595.19
2018-07-04T15:07:28.050Z,99598.11
2018-07-04T15:09:55.808Z,99599.77
2018-07-04T15:12:24.181Z,99592.69
2018-07-04T15:14:55.685Z,99591.37
2018-07-04T15:17:23.413Z,99590.53
2018-07-04T15:19:51.144Z,99584.75
2018-07-04T15:22:20.373Z,99592.16
2018-07-04T15:24:48.055Z,99600.60
2018-07-04T15:27:15.752Z,99594.08
2018-07-04T15:29:43.720Z,99602.36
2018-07-04T15:32:11.687Z,99600.20
2018-07-04T15:34:39.414Z,99594.44
2018-07-04T15:37:07.409Z,99596.91
2018-07-04T15:39:35.793Z,99594.98
2018-07-04T15:42:04.243Z,99590.84
2018-07-04T15:44:32.324Z,99588.92
2018-07-04T15:47:00.846Z,99585.34
2018-07-04T15:49:28.533Z,99584.80
2018-07-04T15:51:56.465Z,99577.06
2018-07-04T15:54:24.132Z,99573.80
2018-07-04T15:56:53.278Z,99571.59
2018-07-04T15:59:21.232Z,99575.20
2018-07-04T16:01:52.560Z,99572.17
2018-07-04T16:04:21.456Z,99574.91
2018-07-04T16:06:54.620Z,99582.63
2018-07-04T16:09:22.527Z,99587.27
2018-07-04T16:11:51.045Z,99574.30
2018-07-04T16:14:19.390Z,99582.91
2018-07-04T16:16:53.429Z,99576.58
2018-07-04T16:19:25.116Z,99581.54
2018-07-04T16:21:53.099Z,99582.06
2018-07-04T16:24:21.291Z,99575.36
2018-07-04T16:26:48.981Z,99567.86
2018-07-04T16:29:16.930Z,99570.44
2018-07-04T16:31:44.673Z,99570.48
2018-07-04T16:34:12.432Z,99569.58
2018-07-04T16:36:40.436Z,99573.37
2018-07-04T16:39:11.741Z,99572.38
2018-07-04T16:41:45.130Z,99581.23
2018-07-04T16:44:15.229Z,99583.50
2018-07-04T16:46:44.400Z,99577.77
2018-07-04T16:49:12.905Z,99572.34
2018-07-04T16:51:42.443Z,99572.13
2018-07-04T16:54:10.841Z,99571.19
2018-07-04T16:56:39.340Z,99570.22
2018-07-04T16:59:10.487Z,99578.57
2018-07-04T17:01:39.332Z,99574.16
2018-07-04T17:04:11.968Z,99574.41
2018-07-04T17:06:39.899Z,99574.72
2018-07-04T17:09:09.164Z,99581.86
2018-07-04T17:11:36.822Z,99579.74
2018-07-04T17:14:06.149Z,99570.80
2018-07-04T17:16:35.426Z,99570.59
2018-07-04T17:32:16.577Z,99546.67
2018-07-04T17:34:44.254Z,99543.41
2018-07-04T17:37:12.249Z,99534.34
2018-07-04T17:39:39.941Z,99536.79
2018-07-04T17:42:07.685Z,99538.11
2018-07-04T17:44:36.642Z,99534.41
2018-07-04T17:47:05.649Z,99529.61
2018-07-04T17:49:34.056Z,99526.11
2018-07-04T17:52:02.231Z,99530.27
2018-07-04T17:54:30.870Z,99531.96
2018-07-04T17:56:58.540Z,99530.63
2018-07-04T17:59:30.163Z,99536.44
2018-07-04T18:01:57.860Z,99539.70
2018-07-04T18:04:25.547Z,99540.30
2018-07-04T18:06:55.371Z,99548.07
2018-07-04T18:09:24.704Z,99547.30
2018-07-04T18:11:52.459Z,99547.14
2018-07-04T18:14:20.413Z,99543.70
2018-07-04T18:16:50.301Z,99541.33
2018-07-04T18:19:19.291Z,99535.92
2018-07-04T18:21:48.088Z,99543.19
2018-07-04T18:24:15.755Z,99542.47
2018-07-04T18:26:45.427Z,99539.86
2018-07-04T18:29:13.430Z,99540.50
2018-07-04T18:31:41.110Z,99540.92
2018-07-04T18:34:09.326Z,99535.55
2018-07-04T18:36:37.592Z,99543.08
2018-07-04T18:39:05.670Z,99548.11
2018-07-04T18:41:34.736Z,99540.03
2018-07-04T18:44:07.510Z,99540.12
2018-07-04T18:46:35.180Z,99542.93
2018-07-04T18:49:02.880Z,99545.00
2018-07-04T18:51:31.911Z,99543.74
2018-07-04T18:53:59.593Z,99541.09
2018-07-04T18:56:27.577Z,99542.05
2018-07-04T18:58:56.312Z,99548.42
2018-07-04T19:01:25.397Z,99547.75
2018-07-04T19:03:53.732Z,99548.45
2018-07-04T19:06:21.759Z,99546.94
2018-07-04T19:08:50.096Z,99543.75
2018-07-04T19:11:17.809Z,99545.81
2018-07-04T19:13:46.507Z,99549.04
2018-07-04T19:16:14.207Z,99554.81
2018-07-04T19:18:43.599Z,99558.62
2018-07-04T19:21:11.580Z,99559.98
2018-07-04T19:23:41.383Z,99558.30
2018-07-04T19:26:09.559Z,99562.59
2018-07-04T19:28:37.620Z,99554.96
2018-07-04T19:31:09.256Z,99554.28
2018-07-04T19:33:37.756Z,99547.16
2018-07-04T19:36:06.516Z,99552.30
2018-07-04T19:38:35.624Z,99554.76
2018-07-04T19:41:06.713Z,99550.44
2018-07-04T19:43:35.044Z,99548.29
2018-07-04T19:46:03.405Z,99546.96
2018-07-04T19:48:33.274Z,99555.50
2018-07-04T19:51:01.258Z,99562.55
2018-07-04T19:53:29.736Z,99577.58
2018-07-04T19:55:57.405Z,99578.96
2018-07-04T19:58:27.355Z,99584.77
2018-07-04T20:00:55.211Z,99591.31
2018-07-04T20:03:24.300Z,99589.16
2018-07-04T20:05:57.225Z,99599.84
2018-07-04T20:08:27.312Z,99595.26
2018-07-04T20:10:56.368Z,99595.61
2018-07-04T20:13:32.762Z,99592.93
2018-07-04T20:16:01.829Z,99596.20
2018-07-04T20:18:32.468Z,99596.17
2018-07-04T20:21:02.731Z,99594.64
2018-07-04T20:23:34.891Z,99595.80
2018-07-04T20:26:03.268Z,99601.88
2018-07-04T20:28:32.871Z,99606.16
2018-07-04T20:31:02.054Z,99598.21
2018-07-04T20:33:29.734Z,99596.13
2018-07-04T20:36:00.522Z,99588.42
2018-07-04T20:38:29.364Z,99590.22
2018-07-04T20:41:00.414Z,99587.39
2018-07-04T20:43:29.103Z,99586.44
2018-07-04T20:45:59.680Z,99586.14
2018-07-04T20:48:27.371Z,99583.85
2018-07-04T20:50:59.709Z,99579.06
2018-07-04T20:53:31.070Z,99574.87
2018-07-04T20:55:59.460Z,99564.84
2018-07-04T20:58:29.937Z,99564.64
2018-07-04T21:00:59.616Z,99562.45
2018-07-04T21:03:29.317Z,99558.67
2018-07-04T21:06:01.918Z,99552.21
2018-07-04T21:08:30.568Z,99546.36
2018-07-04T21:11:12.367Z,99550.33
2018-07-04T21:13:40.332Z,99551.27
2018-07-04T21:16:09.570Z,99547.22
2018-07-04T21:18:37.885Z,99542.81
2018-07-04T21:21:06.935Z,99548.06
2018-07-04T21:23:34.608Z,99547.34
2018-07-04T21:26:04.164Z,99542.54
2018-07-04T21:28:33.747Z,99553.29
2018-07-04T21:31:02.636Z,99556.63
2018-07-04T21:33:30.288Z,99549.63
2018-07-04T21:35:58.303Z,99545.33
2018-07-04T21:38:25.966Z,99540.84
2018-07-04T21:40:56.617Z,99546.69
2018-07-04T21:43:25.107Z,99559.30
2018-07-04T21:45:55.757Z,99562.44
2018-07-04T21:48:27.452Z,99569.31
2018-07-04T21:50:57.200Z,99573.27
2018-07-04T21:53:25.434Z,99575.67
2018-07-04T21:55:53.651Z,99578.69
2018-07-04T21:58:21.631Z,99590.17
2018-07-04T22:00:50.410Z,99591.84
2018-07-04T22:03:19.361Z,99598.73
2018-07-04T22:05:48.283Z,99598.03
2018-07-04T22:08:21.880Z,99604.09
2018-07-04T22:10:49.821Z,99607.34
2018-07-04T22:13:17.998Z,99612.15
2018-07-04T22:15:49.229Z,99610.95
2018-07-04T22:18:17.261Z,99606.45
2018-07-04T22:20:45.683Z,99597.89
2018-07-04T22:34:27.321Z,99611.52
2018-07-04T22:39:39.010Z,99610.12
2018-07-04T22:44:41.568Z,99609.91
2018-07-04T22:49:55.236Z,99608.44
2018-07-04T22:55:03.401Z,99612.41
2018-07-04T22:57:32.662Z,99605.63
2018-07-04T23:00:00.372Z,99597.17
2018-07-04T23:02:28.276Z,99592.79
2018-07-04T23:04:59.479Z,99590.61
2018-07-04T23:07:30.591Z,99584.95
2018-07-04T23:12:35.667Z,99590.94
2018-07-04T23:15:04.216Z,99583.42
2018-07-04T23:20:05.195Z,99589.12
2018-07-04T23:22:43.426Z,99594.48
2018-07-04T23:38:20.019Z,99588.23
2018-07-04T23:48:34.908Z,99587.96
2018-07-04T23:51:04.550Z,99585.41
2018-07-04T23:53:32.239Z,99597.41
